Terminal Aerodrome Forecast
Issued by NWS

Home | Current Version | Previous Version | Text Only | Print | Product List | Glossary On
Versions: 1 2 3 4 5 6 7 8 9 10 11 12 13 14 15 16 17 18
000
FTUS43 KUNR 290520
TAFGCC
TAF
KGCC 290520Z 2906/3006 17004KT P6SM SCT006 OVC040
     FM290800 14004KT 1SM BR OVC004
     FM291300 17009KT P6SM OVC025
     FM291900 13009KT P6SM OVC040
     FM300300 16006KT P6SM OVC015=

USA.gov is the U.S. government's official web portal to all federal, state and local government web resources and services.